createdAt,value
2023-05-19T00:08:07.417Z,0.1
2023-05-19T00:20:07.545Z,0.1
2023-05-19T00:32:07.527Z,0.2
2023-05-19T00:44:07.446Z,0.2
2023-05-19T00:56:07.437Z,0.2
2023-05-19T01:08:07.608Z,0.3
2023-05-19T01:20:07.560Z,0.3
2023-05-19T01:32:07.520Z,0.3
2023-05-19T01:44:07.620Z,0.3
2023-05-19T01:56:07.662Z,0.3
2023-05-19T02:08:07.648Z,0.4
2023-05-19T02:20:07.568Z,0.4
2023-05-19T02:32:07.575Z,0.4
2023-05-19T02:44:07.705Z,0.4
2023-05-19T02:56:07.672Z,0.4
2023-05-19T03:08:07.638Z,0.5
2023-05-19T03:20:07.584Z,0.5
2023-05-19T03:32:07.738Z,0.5
2023-05-19T03:44:07.701Z,0.5
2023-05-19T03:56:07.692Z,0.5
2023-05-19T04:08:07.633Z,0.6
2023-05-19T04:20:07.739Z,0.6
2023-05-19T04:32:07.743Z,0.7
2023-05-19T04:44:07.651Z,0.7
2023-05-19T04:56:07.858Z,0.7
2023-05-19T05:08:07.811Z,0.7
2023-05-19T05:20:07.753Z,0.7
2023-05-19T05:32:07.695Z,0.8
2023-05-19T05:44:07.895Z,0.8
2023-05-19T05:56:07.808Z,0.8
2023-05-19T06:08:07.823Z,0.8
2023-05-19T06:20:07.726Z,0.8
2023-05-19T06:32:07.947Z,0.9
2023-05-19T06:44:07.856Z,0.9
2023-05-19T06:56:07.844Z,0.9
2023-05-19T07:08:07.790Z,0.9
2023-05-19T07:20:07.944Z,0.9
2023-05-19T07:32:07.892Z,1
2023-05-19T07:44:08.056Z,1
2023-05-19T07:56:07.999Z,1
2023-05-19T08:08:08.052Z,1.1
2023-05-19T08:20:08.032Z,1.1
2023-05-19T08:32:07.912Z,1.1
2023-05-19T08:44:08.048Z,1.1
2023-05-19T08:56:08.025Z,1.1
2023-05-19T09:08:08.048Z,1.2
2023-05-19T09:20:07.982Z,1.2
2023-05-19T09:32:08.180Z,1.2
2023-05-19T09:44:08.418Z,1.2
2023-05-19T09:56:08.083Z,1.2
2023-05-19T10:08:08.180Z,1.3
2023-05-19T10:20:08.180Z,1.3
2023-05-19T10:32:08.225Z,1.3
2023-05-19T10:44:08.078Z,1.3
2023-05-19T10:56:08.040Z,1.3
2023-05-19T11:08:08.205Z,1.4
2023-05-19T11:20:08.159Z,1.4
2023-05-19T11:32:08.110Z,1.5
2023-05-19T11:44:08.154Z,1.5
2023-05-19T11:56:08.361Z,1.5
2023-05-19T12:08:08.282Z,1.5
2023-05-19T12:20:08.125Z,1.5
2023-05-19T12:32:08.144Z,1.5
2023-05-19T12:44:08.246Z,1.5
2023-05-19T12:56:08.347Z,1.5
2023-05-19T13:08:08.225Z,1.6
2023-05-19T13:20:08.164Z,1.6
2023-05-19T13:32:08.313Z,1.6
2023-05-19T13:44:08.320Z,1.6
2023-05-19T13:56:08.226Z,1.6
2023-05-19T14:08:08.254Z,1.7
2023-05-19T14:20:08.364Z,1.7
2023-05-19T14:32:08.345Z,1.7
2023-05-19T14:44:08.244Z,1.7
2023-05-19T14:56:08.440Z,1.7
2023-05-19T15:08:08.403Z,1.8
2023-05-19T15:20:08.361Z,1.8
2023-05-19T15:32:08.297Z,2
2023-05-19T15:44:08.481Z,2
2023-05-19T15:56:08.557Z,2
2023-05-19T16:08:09.043Z,2
2023-05-19T16:20:08.351Z,2
2023-05-19T16:32:08.590Z,2
2023-05-19T16:44:08.458Z,2
2023-05-19T16:56:08.517Z,2
2023-05-19T17:08:08.402Z,2.1
2023-05-19T17:20:08.553Z,2.1
2023-05-19T17:32:08.514Z,2.1
2023-05-19T17:44:08.547Z,2.1
2023-05-19T17:56:08.605Z,2.1
2023-05-19T18:08:08.621Z,2.2
2023-05-19T18:20:08.530Z,2.2
2023-05-19T18:32:08.583Z,2.3
2023-05-19T18:44:08.654Z,2.3
2023-05-19T18:56:08.635Z,2.3
2023-05-19T19:08:08.623Z,2.4
2023-05-19T19:20:08.643Z,2.4
2023-05-19T19:32:08.835Z,2.4
2023-05-19T19:44:08.691Z,2.4
2023-05-19T19:56:08.610Z,2.4
2023-05-19T20:08:09.223Z,2.6
2023-05-19T20:20:08.729Z,2.6
2023-05-19T20:32:08.712Z,2.7
2023-05-19T20:44:08.638Z,2.7
2023-05-19T20:56:08.822Z,2.7
2023-05-19T21:08:08.792Z,2.8
2023-05-19T21:20:08.733Z,2.8
2023-05-19T21:32:09.358Z,2.9
2023-05-19T21:44:08.848Z,2.9
2023-05-19T21:56:08.774Z,2.9
2023-05-19T22:08:09.269Z,3
2023-05-19T22:20:08.796Z,3
2023-05-19T22:32:08.933Z,3
2023-05-19T22:44:09.068Z,3
2023-05-19T22:56:08.917Z,3
2023-05-19T23:08:08.857Z,0
2023-05-19T23:20:08.814Z,0
2023-05-19T23:32:08.775Z,0.1
2023-05-19T23:44:08.983Z,0.1
2023-05-19T23:56:08.883Z,0.1
